Home > Products > Valid Products > TAF

000
FTUS43 KFSD 032320
TAFSUX
TAF
KSUX 032320Z 0400/0424 VRB03KT P6SM FEW120
     FM041000 11005KT P6SM SCT100 BKN200
     FM042000 16008KT P6SM BKN080=



000
FTUS43 KFSD 032320
TAFSUX
TAF
KSUX 032320Z 0400/0424 VRB03KT P6SM FEW120
     FM041000 11005KT P6SM SCT100 BKN200
     FM042000 16008KT P6SM BKN080=



000
FTUS43 KFSD 032320
TAFHON
TAF
KHON 032320Z 0400/0424 34005KT P6SM FEW250
     FM040100 VRB04KT P6SM FEW250
     FM041400 13008KT P6SM SCT100 BKN200
     FM042000 16008KT P6SM BKN080=



000
FTUS43 KFSD 032320
TAFFSD
TAF
KFSD 032320Z 0400/0424 31006KT P6SM FEW050
     FM040100 VRB03KT P6SM FEW250
     FM041400 13008KT P6SM SCT100 BKN200
     FM042000 16008KT P6SM BKN080=



000
FTUS43 KFSD 031720
TAFFSD
TAF
KFSD 031720Z 0318/0418 31006KT P6SM FEW050
     FM040100 VRB03KT P6SM FEW250
     FM041300 13007KT P6SM SCT060=



000
FTUS43 KFSD 031720
TAFSUX
TAF
KSUX 031720Z 0318/0418 VRB03KT P6SM FEW120
     FM041000 11005KT P6SM BKN080 BKN200
      AMD NOT SKED=



000
FTUS43 KFSD 031720
TAFSUX
TAF
KSUX 031720Z 0318/0418 VRB03KT P6SM FEW120
     FM041000 11005KT P6SM BKN080 BKN200
      AMD NOT SKED=



000
FTUS43 KFSD 031720
TAFHON
TAF
KHON 031720Z 0318/0418 34005KT P6SM SKC
     FM040100 VRB04KT P6SM SKC
     FM041400 13008KT P6SM SCT060=



000
FTUS43 KFSD 031120
TAFFSD
TAF
KFSD 031120Z 0312/0412 VRB03KT P6SM SKC
     FM031800 31006KT P6SM SKC
     FM040100 VRB03KT P6SM FEW250=



000
FTUS43 KFSD 031120
TAFHON
TAF
KHON 031120Z 0312/0412 VRB03KT P6SM SKC
     FM031800 34005KT P6SM SKC
     FM040100 VRB04KT P6SM SKC=



000
FTUS43 KFSD 031120
TAFSUX
TAF
KSUX 031120Z 0312/0412 VRB03KT P6SM FEW120
     FM040900 11005KT P6SM BKN200
      AMD NOT SKED=



000
FTUS43 KFSD 031120
TAFSUX
TAF
KSUX 031120Z 0312/0412 VRB03KT P6SM FEW120
     FM040900 11005KT P6SM BKN200
      AMD NOT SKED=



000
FTUS43 KFSD 031120
TAFFSD
TAF
KFSD 031120Z 0312/0412 VRB03KT P6SM SKC
     FM031800 31006KT P6SM SKC
     FM040100 VRB03KT P6SM FEW250=



000
FTUS43 KFSD 031120
TAFHON
TAF
KHON 031120Z 0312/0412 VRB03KT P6SM SKC
     FM031800 34005KT P6SM SKC
     FM040100 VRB04KT P6SM SKC=



000
FTUS43 KFSD 031120
TAFSUX
TAF
KSUX 031120Z 0312/0412 VRB03KT P6SM FEW120
     FM040900 11005KT P6SM BKN200
      AMD NOT SKED=



000
FTUS43 KFSD 030521
TAFSUX
TAF
KSUX 030521Z 0306/0406 02004KT P6SM FEW100
     FM031100 VRB03KT P6SM SCT120
      AMD NOT SKED=



000
FTUS43 KFSD 030521
TAFSUX
TAF
KSUX 030521Z 0306/0406 02004KT P6SM FEW100
     FM031100 VRB03KT P6SM SCT120
      AMD NOT SKED=



000
FTUS43 KFSD 030521
TAFFSD
TAF
KFSD 030521Z 0306/0406 VRB03KT P6SM SKC
     FM031800 32007KT P6SM SKC
     FM040100 VRB03KT P6SM FEW250=



000
FTUS43 KFSD 030521
TAFSUX
TAF
KSUX 030521Z 0306/0406 02004KT P6SM FEW100
     FM031100 VRB03KT P6SM SCT120
      AMD NOT SKED=



000
FTUS43 KFSD 030521
TAFHON
TAF
KHON 030521Z 0306/0406 VRB03KT P6SM SKC
     FM031800 35006KT P6SM SKC
     FM040100 VRB04KT P6SM SKC=



000
FTUS43 KFSD 030521
TAFFSD
TAF
KFSD 030521Z 0306/0406 VRB03KT P6SM SKC
     FM031800 32007KT P6SM SKC
     FM040100 VRB03KT P6SM FEW250=



000
FTUS43 KFSD 030521
TAFHON
TAF
KHON 030521Z 0306/0406 VRB03KT P6SM SKC
     FM031800 35006KT P6SM SKC
     FM040100 VRB04KT P6SM SKC=



000
FTUS43 KFSD 022322
TAFSUX
TAF
KSUX 022322Z 0300/0324 35007KT P6SM SKC
     FM030400 VRB04KT P6SM FEW250
     FM031300 VRB03KT P6SM SCT120=



000
FTUS43 KFSD 022322
TAFFSD
TAF
KFSD 022322Z 0300/0324 35008KT P6SM SKC
     FM030200 35003KT P6SM SKC
     FM031100 VRB03KT P6SM SKC
     FM031800 32007KT P6SM SKC=



000
FTUS43 KFSD 022322
TAFSUX
TAF
KSUX 022322Z 0300/0324 35007KT P6SM SKC
     FM030400 VRB04KT P6SM FEW250
     FM031300 VRB03KT P6SM SCT120=



000
FTUS43 KFSD 022322
TAFHON
TAF
KHON 022322Z 0300/0324 35008KT P6SM SKC
     FM030200 36004KT P6SM SKC
     FM030900 VRB03KT P6SM SKC
     FM031900 36006KT P6SM SKC=



000
FTUS43 KFSD 021932 AAB
TAFFSD
TAF AMD
KFSD 021932Z 0220/0318 02012KT P6SM SKC
     FM030000 35006KT P6SM SKC
     FM030500 36003KT P6SM SKC=



000
FTUS43 KFSD 021931 AAA
TAFHON
TAF AMD
KHON 021931Z 0220/0318 36014KT P6SM SKC
     FM030000 36008KT P6SM SKC
     FM030300 36004KT P6SM SKC=



000
FTUS43 KFSD 021720
TAFHON
TAF
KHON 021720Z 0218/0318 35014G22KT P6SM SKC
     FM030000 36008KT P6SM SKC
     FM030300 36004KT P6SM SKC=



000
FTUS43 KFSD 021720
TAFHON
TAF
KHON 021720Z 0218/0318 35014G22KT P6SM SKC
     FM030000 36008KT P6SM SKC
     FM030300 36004KT P6SM SKC=



000
FTUS43 KFSD 021720
TAFSUX
TAF
KSUX 021720Z 0218/0318 32013G19KT P6SM SKC
     FM030000 35007KT P6SM SKC
     FM030700 02004KT P6SM SCT250=



000
FTUS43 KFSD 021720
TAFSUX
TAF
KSUX 021720Z 0218/0318 32013G19KT P6SM SKC
     FM030000 35007KT P6SM SKC
     FM030700 02004KT P6SM SCT250=



000
FTUS43 KFSD 021720
TAFSUX
TAF
KSUX 021720Z 0218/0318 32013G19KT P6SM SKC
     FM030000 35007KT P6SM SKC
     FM030700 02004KT P6SM SCT250=



000
FTUS43 KFSD 021720
TAFSUX
TAF
KSUX 021720Z 0218/0318 32013G19KT P6SM SKC
     FM030000 35007KT P6SM SKC
     FM030700 02004KT P6SM SCT250=



000
FTUS43 KFSD 021720
TAFFSD
TAF
KFSD 021720Z 0218/0318 33013G19KT P6SM SKC
     FM030000 35006KT P6SM SKC
     FM030500 36003KT P6SM SKC=



000
FTUS43 KFSD 021720
TAFFSD
TAF
KFSD 021720Z 0218/0318 33013G19KT P6SM SKC
     FM030000 35006KT P6SM SKC
     FM030500 36003KT P6SM SKC=



000
FTUS43 KFSD 021120
TAFFSD
TAF
KFSD 021120Z 0212/0312 22006KT P6SM SKC
     FM021400 27009KT P6SM SKC
     FM021800 33013G19KT P6SM SKC
     FM030000 35006KT P6SM SKC
     FM030500 36003KT P6SM SKC=



000
FTUS43 KFSD 021120
TAFSUX
TAF
KSUX 021120Z 0212/0312 20005KT P6SM SKC
     FM021400 26009KT P6SM SKC
     FM021800 32013G19KT P6SM SKC
     FM030000 35007KT P6SM SKC
     FM030700 02003KT P6SM SKC=



000
FTUS43 KFSD 021120
TAFSUX
TAF
KSUX 021120Z 0212/0312 20005KT P6SM SKC
     FM021400 26009KT P6SM SKC
     FM021800 32013G19KT P6SM SKC
     FM030000 35007KT P6SM SKC
     FM030700 02003KT P6SM SKC=



000
FTUS43 KFSD 021120
TAFSUX
TAF
KSUX 021120Z 0212/0312 20005KT P6SM SKC
     FM021400 26009KT P6SM SKC
     FM021800 32013G19KT P6SM SKC
     FM030000 35007KT P6SM SKC
     FM030700 02003KT P6SM SKC=



000
FTUS43 KFSD 021120
TAFHON
TAF
KHON 021120Z 0212/0312 VRB04KT P6SM VCTS SCT100CB
     FM021400 35014G21KT P6SM SKC
     FM030000 36008KT P6SM SKC
     FM030300 36004KT P6SM SKC=



000
FTUS43 KFSD 021120
TAFSUX
TAF
KSUX 021120Z 0212/0312 20005KT P6SM SKC
     FM021400 26009KT P6SM SKC
     FM021800 32013G19KT P6SM SKC
     FM030000 35007KT P6SM SKC
     FM030700 02003KT P6SM SKC=



000
FTUS43 KFSD 021120
TAFFSD
TAF
KFSD 021120Z 0212/0312 22006KT P6SM SKC
     FM021400 27009KT P6SM SKC
     FM021800 33013G19KT P6SM SKC
     FM030000 35006KT P6SM SKC
     FM030500 36003KT P6SM SKC=



000
FTUS43 KFSD 021120
TAFHON
TAF
KHON 021120Z 0212/0312 VRB04KT P6SM VCTS SCT100CB
     FM021400 35014G21KT P6SM SKC
     FM030000 36008KT P6SM SKC
     FM030300 36004KT P6SM SKC=



000
FTUS43 KFSD 020520
TAFSUX
TAF
KSUX 020520Z 0206/0306 19005KT P6SM FEW250
     FM021400 26009KT P6SM SKC
     FM021800 32013G19KT P6SM SKC
     FM030000 35005KT P6SM SKC=



000
FTUS43 KFSD 020520
TAFHON
TAF
KHON 020520Z 0206/0306 22005KT P6SM SKC
     FM021400 35014G21KT P6SM SKC
     FM030000 36005KT P6SM SKC=



000
FTUS43 KFSD 020520
TAFSUX
TAF
KSUX 020520Z 0206/0306 19005KT P6SM FEW250
     FM021400 26009KT P6SM SKC
     FM021800 32013G19KT P6SM SKC
     FM030000 35005KT P6SM SKC=



000
FTUS43 KFSD 020520
TAFFSD
TAF
KFSD 020520Z 0206/0306 22006KT P6SM SKC
     FM021400 26009KT P6SM SKC
     FM021800 33012KT P6SM SKC
     FM030000 35006KT P6SM SKC=



000
FTUS43 KFSD 012322
TAFHON
TAF
KHON 012322Z 0200/0224 24012KT P6SM SCT100 SCT250
     FM020200 21007KT P6SM SCT200
     FM021100 27007KT P6SM SKC
     FM021400 34013G19KT P6SM SKC=



000
FTUS43 KFSD 012322
TAFSUX
TAF
KSUX 012322Z 0200/0224 17008KT P6SM SKC
     FM020400 21007KT P6SM FEW250
     FM021400 26009KT P6SM SKC
     FM021800 32013G19KT P6SM SKC=



000
FTUS43 KFSD 012322
TAFFSD
TAF
KFSD 012322Z 0200/0224 23011KT P6SM SKC
     FM020200 21009KT P6SM FEW100 SCT250
     FM020500 22006KT P6SM FEW250
     FM021300 26009KT P6SM SKC
     FM021600 33014G21KT P6SM SKC=



000
FTUS43 KFSD 012322
TAFFSD
TAF
KFSD 012322Z 0200/0224 23011KT P6SM SKC
     FM020200 21009KT P6SM FEW100 SCT250
     FM020500 22006KT P6SM FEW250
     FM021300 26009KT P6SM SKC
     FM021600 33014G21KT P6SM SKC=



000
FTUS43 KFSD 012322
TAFSUX
TAF
KSUX 012322Z 0200/0224 17008KT P6SM SKC
     FM020400 21007KT P6SM FEW250
     FM021400 26009KT P6SM SKC
     FM021800 32013G19KT P6SM SKC=



000
FTUS43 KFSD 012322
TAFHON
TAF
KHON 012322Z 0200/0224 24012KT P6SM SCT100 SCT250
     FM020200 21007KT P6SM SCT200
     FM021100 27007KT P6SM SKC
     FM021400 34013G19KT P6SM SKC=



000
FTUS43 KFSD 012322
TAFSUX
TAF
KSUX 012322Z 0200/0224 17008KT P6SM SKC
     FM020400 21007KT P6SM FEW250
     FM021400 26009KT P6SM SKC
     FM021800 32013G19KT P6SM SKC=



000
FTUS43 KFSD 012322
TAFSUX
TAF
KSUX 012322Z 0200/0224 17008KT P6SM SKC
     FM020400 21007KT P6SM FEW250
     FM021400 26009KT P6SM SKC
     FM021800 32013G19KT P6SM SKC=



000
FTUS43 KFSD 011720
TAFSUX
TAF
KSUX 011720Z 0118/0218 20009KT P6SM SCT120 SCT250
     FM012000 23013G20KT P6SM SCT050 SCT120
     FM020300 22012KT P6SM SCT100
     FM021000 26006KT P6SM SKC
     FM021500 33013KT P6SM SKC=



000
FTUS43 KFSD 011720
TAFFSD
TAF
KFSD 011720Z 0118/0218 22012KT P6SM SCT120 BKN250
     FM012000 20012G20KT P6SM SCT050 SCT120
     FM020300 23008KT P6SM SCT100
     FM021000 26006KT P6SM SKC
     FM021500 33013KT P6SM SKC=



000
FTUS43 KFSD 011720
TAFSUX
TAF
KSUX 011720Z 0118/0218 20009KT P6SM SCT120 SCT250
     FM012000 23013G20KT P6SM SCT050 SCT120
     FM020300 22012KT P6SM SCT100
     FM021000 26006KT P6SM SKC
     FM021500 33013KT P6SM SKC=



000
FTUS43 KFSD 011720
TAFSUX
TAF
KSUX 011720Z 0118/0218 20009KT P6SM SCT120 SCT250
     FM012000 23013G20KT P6SM SCT050 SCT120
     FM020300 22012KT P6SM SCT100
     FM021000 26006KT P6SM SKC
     FM021500 33013KT P6SM SKC=



000
FTUS43 KFSD 011720
TAFSUX
TAF
KSUX 011720Z 0118/0218 20009KT P6SM SCT120 SCT250
     FM012000 23013G20KT P6SM SCT050 SCT120
     FM020300 22012KT P6SM SCT100
     FM021000 26006KT P6SM SKC
     FM021500 33013KT P6SM SKC=



000
FTUS43 KFSD 011720
TAFHON
TAF
KHON 011720Z 0118/0218 22012G18KT P6SM SCT100 SCT250
     FM020100 24007KT P6SM SCT200
     FM021400 33013KT P6SM SKC=



000
FTUS43 KFSD 011720
TAFFSD
TAF
KFSD 011720Z 0118/0218 22012KT P6SM SCT120 BKN250
     FM012000 20012G20KT P6SM SCT050 SCT120
     FM020300 23008KT P6SM SCT100
     FM021000 26006KT P6SM SKC
     FM021500 33013KT P6SM SKC=



000
FTUS43 KFSD 011720
TAFHON
TAF
KHON 011720Z 0118/0218 22012G18KT P6SM SCT100 SCT250
     FM020100 24007KT P6SM SCT200
     FM021400 33013KT P6SM SKC=



000
FTUS43 KFSD 011237 AAB
TAFSUX
TAF AMD
KSUX 011237Z 0113/0212 15003KT 4SM BR SCT002
      TEMPO 0113/0114 2SM BR BKN004
     FM011400 20009KT P6SM SCT120 SCT250
     FM012000 23013G20KT P6SM SCT050 SCT120
     FM012300 22012KT 6SM TSRA BKN040CB
     FM020200 17007KT P6SM SCT100 BKN250=



000
FTUS43 KFSD 011237 AAB
TAFSUX
TAF AMD
KSUX 011237Z 0113/0212 15003KT 4SM BR SCT002
      TEMPO 0113/0114 2SM BR BKN004
     FM011400 20009KT P6SM SCT120 SCT250
     FM012000 23013G20KT P6SM SCT050 SCT120
     FM012300 22012KT 6SM TSRA BKN040CB
     FM020200 17007KT P6SM SCT100 BKN250=



000
FTUS43 KFSD 011237 AAB
TAFSUX
TAF AMD
KSUX 011237Z 0113/0212 15003KT 4SM BR SCT002
      TEMPO 0113/0114 2SM BR BKN004
     FM011400 20009KT P6SM SCT120 SCT250
     FM012000 23013G20KT P6SM SCT050 SCT120
     FM012300 22012KT 6SM TSRA BKN040CB
     FM020200 17007KT P6SM SCT100 BKN250=



000
FTUS43 KFSD 011148 AAA
TAFSUX
TAF AMD
KSUX 011148Z 0112/0212 15003KT P6SM FEW250
      TEMPO 0112/0113 1/2SM FG
     FM011500 20009KT P6SM SCT120 SCT250
     FM012000 23013G20KT P6SM SCT050 SCT120 PROB30 0121/0123 4SM
      TSRA BKN040CB
     FM012300 22012KT 6SM TSRA BKN040CB
     FM020200 17007KT P6SM SCT100 BKN250=



000
FTUS43 KFSD 011148 AAA
TAFSUX
TAF AMD
KSUX 011148Z 0112/0212 15003KT P6SM FEW250
      TEMPO 0112/0113 1/2SM FG
     FM011500 20009KT P6SM SCT120 SCT250
     FM012000 23013G20KT P6SM SCT050 SCT120 PROB30 0121/0123 4SM
      TSRA BKN040CB
     FM012300 22012KT 6SM TSRA BKN040CB
     FM020200 17007KT P6SM SCT100 BKN250=



000
FTUS43 KFSD 011148 AAA
TAFSUX
TAF AMD
KSUX 011148Z 0112/0212 15003KT P6SM FEW250
      TEMPO 0112/0113 1/2SM FG
     FM011500 20009KT P6SM SCT120 SCT250
     FM012000 23013G20KT P6SM SCT050 SCT120 PROB30 0121/0123 4SM
      TSRA BKN040CB
     FM012300 22012KT 6SM TSRA BKN040CB
     FM020200 17007KT P6SM SCT100 BKN250=



000
FTUS43 KFSD 011148 AAA
TAFSUX
TAF AMD
KSUX 011148Z 0112/0212 15003KT P6SM FEW250
      TEMPO 0112/0113 1/2SM FG
     FM011500 20009KT P6SM SCT120 SCT250
     FM012000 23013G20KT P6SM SCT050 SCT120 PROB30 0121/0123 4SM
      TSRA BKN040CB
     FM012300 22012KT 6SM TSRA BKN040CB
     FM020200 17007KT P6SM SCT100 BKN250=



000
FTUS43 KFSD 011120
TAFFSD
TAF
KFSD 011120Z 0112/0212 22003KT P6SM SKC
     FM011500 20007KT P6SM SCT120
     FM011800 20012KT P6SM SCT100
     FM012000 22012G18KT P6SM SCT050 PROB30 0122/0124 6SM -TSRA
      BKN040CB
     FM020100 19008KT P6SM SCT100
     FM021000 23006KT P6SM SKC=



000
FTUS43 KFSD 011120
TAFSUX
TAF
KSUX 011120Z 0112/0212 15003KT P6SM FEW250
      TEMPO 0112/0113 1SM BR
     FM011500 20009KT P6SM SCT120 SCT250
     FM012000 23013G20KT P6SM SCT050 SCT120 PROB30 0121/0123 4SM
      TSRA BKN040CB
     FM012300 22012KT 6SM TSRA BKN040CB
     FM020200 17007KT P6SM SCT100 BKN250=



000
FTUS43 KFSD 011120
TAFSUX
TAF
KSUX 011120Z 0112/0212 15003KT P6SM FEW250
      TEMPO 0112/0113 1SM BR
     FM011500 20009KT P6SM SCT120 SCT250
     FM012000 23013G20KT P6SM SCT050 SCT120 PROB30 0121/0123 4SM
      TSRA BKN040CB
     FM012300 22012KT 6SM TSRA BKN040CB
     FM020200 17007KT P6SM SCT100 BKN250=



000
FTUS43 KFSD 011120
TAFFSD
TAF
KFSD 011120Z 0112/0212 22003KT P6SM SKC
     FM011500 20007KT P6SM SCT120
     FM011800 20012KT P6SM SCT100
     FM012000 22012G18KT P6SM SCT050 PROB30 0122/0124 6SM -TSRA
      BKN040CB
     FM020100 19008KT P6SM SCT100
     FM021000 23006KT P6SM SKC=



000
FTUS43 KFSD 011120
TAFHON
TAF
KHON 011120Z 0112/0212 VRB04KT P6SM SKC
     FM011400 18007KT P6SM SCT120
     FM011800 22012G18KT P6SM SCT080
     FM020100 20007KT P6SM SKC
     FM021000 24005KT P6SM SKC=



000
FTUS43 KFSD 011120
TAFHON
TAF
KHON 011120Z 0112/0212 VRB04KT P6SM SKC
     FM011400 18007KT P6SM SCT120
     FM011800 22012G18KT P6SM SCT080
     FM020100 20007KT P6SM SKC
     FM021000 24005KT P6SM SKC=



000
FTUS43 KFSD 011120
TAFSUX
TAF
KSUX 011120Z 0112/0212 15003KT P6SM FEW250
      TEMPO 0112/0113 1SM BR
     FM011500 20009KT P6SM SCT120 SCT250
     FM012000 23013G20KT P6SM SCT050 SCT120 PROB30 0121/0123 4SM
      TSRA BKN040CB
     FM012300 22012KT 6SM TSRA BKN040CB
     FM020200 17007KT P6SM SCT100 BKN250=



000
FTUS43 KFSD 011120
TAFSUX
TAF
KSUX 011120Z 0112/0212 15003KT P6SM FEW250
      TEMPO 0112/0113 1SM BR
     FM011500 20009KT P6SM SCT120 SCT250
     FM012000 23013G20KT P6SM SCT050 SCT120 PROB30 0121/0123 4SM
      TSRA BKN040CB
     FM012300 22012KT 6SM TSRA BKN040CB
     FM020200 17007KT P6SM SCT100 BKN250=



000
FTUS43 KFSD 011008 AAA
TAFSUX
TAF AMD
KSUX 011008Z 0110/0206 12003KT P6SM FEW250
      TEMPO 0110/0113 2SM BR
     FM011400 17007KT P6SM SCT120 SCT250
     FM011700 20010KT P6SM SCT090
     FM012000 23013G20KT P6SM SCT050 PROB30 0122/0124 4SM TSRA
      BKN040CB
     FM020100 20011KT P6SM SCT100 BKN250=



000
FTUS43 KFSD 011008 AAA
TAFSUX
TAF AMD
KSUX 011008Z 0110/0206 12003KT P6SM FEW250
      TEMPO 0110/0113 2SM BR
     FM011400 17007KT P6SM SCT120 SCT250
     FM011700 20010KT P6SM SCT090
     FM012000 23013G20KT P6SM SCT050 PROB30 0122/0124 4SM TSRA
      BKN040CB
     FM020100 20011KT P6SM SCT100 BKN250=



000
FTUS43 KFSD 011008 AAA
TAFSUX
TAF AMD
KSUX 011008Z 0110/0206 12003KT P6SM FEW250
      TEMPO 0110/0113 2SM BR
     FM011400 17007KT P6SM SCT120 SCT250
     FM011700 20010KT P6SM SCT090
     FM012000 23013G20KT P6SM SCT050 PROB30 0122/0124 4SM TSRA
      BKN040CB
     FM020100 20011KT P6SM SCT100 BKN250=



000
FTUS43 KFSD 011008 AAA
TAFSUX
TAF AMD
KSUX 011008Z 0110/0206 12003KT P6SM FEW250
      TEMPO 0110/0113 2SM BR
     FM011400 17007KT P6SM SCT120 SCT250
     FM011700 20010KT P6SM SCT090
     FM012000 23013G20KT P6SM SCT050 PROB30 0122/0124 4SM TSRA
      BKN040CB
     FM020100 20011KT P6SM SCT100 BKN250=



000
FTUS43 KFSD 010520
TAFFSD
TAF
KFSD 010520Z 0106/0206 22003KT P6SM SKC
     FM011500 18007KT P6SM SCT120
     FM011800 20012KT P6SM SCT080
     FM012000 22012G18KT P6SM SCT050 PROB30 0122/0124 6SM -TSRA
      BKN040CB
     FM020100 19011KT P6SM SCT100=



000
FTUS43 KFSD 010520
TAFSUX
TAF
KSUX 010520Z 0106/0206 12003KT P6SM FEW250
     FM011400 17007KT P6SM SCT120 SCT250
     FM011700 20010KT P6SM SCT090
     FM012000 23013G20KT P6SM SCT050 PROB30 0122/0124 4SM TSRA
      BKN040CB
     FM020100 20011KT P6SM SCT100 BKN250=



000
FTUS43 KFSD 010520
TAFSUX
TAF
KSUX 010520Z 0106/0206 12003KT P6SM FEW250
     FM011400 17007KT P6SM SCT120 SCT250
     FM011700 20010KT P6SM SCT090
     FM012000 23013G20KT P6SM SCT050 PROB30 0122/0124 4SM TSRA
      BKN040CB
     FM020100 20011KT P6SM SCT100 BKN250=



000
FTUS43 KFSD 010520
TAFHON
TAF
KHON 010520Z 0106/0206 18003KT P6SM SKC
     FM011400 16007KT P6SM SCT120
     FM011900 21012G18KT P6SM SCT080
     FM020100 19007KT P6SM SKC=



000
FTUS43 KFSD 010520
TAFHON
TAF
KHON 010520Z 0106/0206 18003KT P6SM SKC
     FM011400 16007KT P6SM SCT120
     FM011900 21012G18KT P6SM SCT080
     FM020100 19007KT P6SM SKC=



000
FTUS43 KFSD 010520
TAFSUX
TAF
KSUX 010520Z 0106/0206 12003KT P6SM FEW250
     FM011400 17007KT P6SM SCT120 SCT250
     FM011700 20010KT P6SM SCT090
     FM012000 23013G20KT P6SM SCT050 PROB30 0122/0124 4SM TSRA
      BKN040CB
     FM020100 20011KT P6SM SCT100 BKN250=



000
FTUS43 KFSD 010520
TAFFSD
TAF
KFSD 010520Z 0106/0206 22003KT P6SM SKC
     FM011500 18007KT P6SM SCT120
     FM011800 20012KT P6SM SCT080
     FM012000 22012G18KT P6SM SCT050 PROB30 0122/0124 6SM -TSRA
      BKN040CB
     FM020100 19011KT P6SM SCT100=



    US Dept of Commerce
    National Oceanic and Atmospheric Administration
    National Weather Service
    1325 East West Highway
    Silver Spring, MD 20910
    Page Author: NWS Internet Services Team
Disclaimer
Information Quality
Credits
Glossary
Privacy Policy
Freedom of Information Act (FOIA)
About Us
Career Opportunities